sensor_id;sensor_type;location;lat;lon;timestamp;P1;durP1;ratioP1;P2;durP2;ratioP2
12861;SDS011;6499;66.348;14.134;2023-01-31T00:00:23;0.70;;;0.23;;
12861;SDS011;6499;66.348;14.134;2023-01-31T00:02:50;0.87;;;0.20;;
12861;SDS011;6499;66.348;14.134;2023-01-31T00:05:16;0.30;;;0.20;;
12861;SDS011;6499;66.348;14.134;2023-01-31T00:07:44;0.63;;;0.40;;
12861;SDS011;6499;66.348;14.134;2023-01-31T00:10:11;0.40;;;0.40;;
12861;SDS011;6499;66.348;14.134;2023-01-31T00:12:37;1.33;;;0.87;;
12861;SDS011;6499;66.348;14.134;2023-01-31T00:15:05;1.77;;;0.83;;
12861;SDS011;6499;66.348;14.134;2023-01-31T00:17:32;1.90;;;1.10;;
12861;SDS011;6499;66.348;14.134;2023-01-31T00:19:58;1.47;;;0.70;;
12861;SDS011;6499;66.348;14.134;2023-01-31T00:22:25;1.90;;;0.90;;
12861;SDS011;6499;66.348;14.134;2023-01-31T00:24:51;1.63;;;0.63;;
12861;SDS011;6499;66.348;14.134;2023-01-31T00:27:18;0.30;;;0.30;;
12861;SDS011;6499;66.348;14.134;2023-01-31T00:29:44;0.80;;;0.47;;
12861;SDS011;6499;66.348;14.134;2023-01-31T00:32:12;1.23;;;0.83;;
12861;SDS011;6499;66.348;14.134;2023-01-31T00:34:39;1.13;;;0.83;;
12861;SDS011;6499;66.348;14.134;2023-01-31T00:37:05;0.70;;;0.50;;
12861;SDS011;6499;66.348;14.134;2023-01-31T00:39:32;0.33;;;0.33;;
12861;SDS011;6499;66.348;14.134;2023-01-31T00:41:58;0.20;;;0.20;;
12861;SDS011;6499;66.348;14.134;2023-01-31T00:44:25;0.40;;;0.30;;
12861;SDS011;6499;66.348;14.134;2023-01-31T00:46:51;0.33;;;0.23;;
12861;SDS011;6499;66.348;14.134;2023-01-31T00:49:19;0.50;;;0.40;;
12861;SDS011;6499;66.348;14.134;2023-01-31T00:51:46;0.30;;;0.30;;
12861;SDS011;6499;66.348;14.134;2023-01-31T00:54:12;0.20;;;0.20;;
12861;SDS011;6499;66.348;14.134;2023-01-31T00:56:38;0.20;;;0.20;;
12861;SDS011;6499;66.348;14.134;2023-01-31T00:59:05;0.27;;;0.23;;
12861;SDS011;6499;66.348;14.134;2023-01-31T01:01:33;0.20;;;0.20;;
12861;SDS011;6499;66.348;14.134;2023-01-31T01:03:59;0.23;;;0.23;;
12861;SDS011;6499;66.348;14.134;2023-01-31T01:06:27;0.30;;;0.30;;
12861;SDS011;6499;66.348;14.134;2023-01-31T01:08:54;0.20;;;0.20;;
12861;SDS011;6499;66.348;14.134;2023-01-31T01:11:23;0.60;;;0.30;;
12861;SDS011;6499;66.348;14.134;2023-01-31T01:13:50;0.30;;;0.30;;
12861;SDS011;6499;66.348;14.134;2023-01-31T01:16:18;0.20;;;0.20;;
12861;SDS011;6499;66.348;14.134;2023-01-31T01:18:45;0.23;;;0.20;;
12861;SDS011;6499;66.348;14.134;2023-01-31T01:21:14;0.30;;;0.30;;
12861;SDS011;6499;66.348;14.134;2023-01-31T01:23:42;0.20;;;0.20;;
12861;SDS011;6499;66.348;14.134;2023-01-31T01:26:12;0.50;;;0.30;;
12861;SDS011;6499;66.348;14.134;2023-01-31T01:28:38;0.40;;;0.40;;
12861;SDS011;6499;66.348;14.134;2023-01-31T01:31:05;1.17;;;0.70;;
12861;SDS011;6499;66.348;14.134;2023-01-31T01:33:32;1.50;;;1.10;;
12861;SDS011;6499;66.348;14.134;2023-01-31T01:35:59;1.97;;;1.50;;
12861;SDS011;6499;66.348;14.134;2023-01-31T01:38:25;0.97;;;0.87;;
12861;SDS011;6499;66.348;14.134;2023-01-31T01:40:53;0.67;;;0.40;;
12861;SDS011;6499;66.348;14.134;2023-01-31T01:43:20;1.03;;;0.20;;
12861;SDS011;6499;66.348;14.134;2023-01-31T01:45:46;0.40;;;0.40;;
12861;SDS011;6499;66.348;14.134;2023-01-31T01:48:13;0.23;;;0.20;;
12861;SDS011;6499;66.348;14.134;2023-01-31T01:50:43;0.30;;;0.27;;
12861;SDS011;6499;66.348;14.134;2023-01-31T01:53:12;0.20;;;0.20;;
12861;SDS011;6499;66.348;14.134;2023-01-31T01:55:41;0.33;;;0.33;;
12861;SDS011;6499;66.348;14.134;2023-01-31T01:58:11;0.30;;;0.30;;
12861;SDS011;6499;66.348;14.134;2023-01-31T02:00:39;0.30;;;0.30;;
12861;SDS011;6499;66.348;14.134;2023-01-31T02:03:05;0.37;;;0.30;;
12861;SDS011;6499;66.348;14.134;2023-01-31T02:05:34;0.40;;;0.40;;
12861;SDS011;6499;66.348;14.134;2023-01-31T02:08:01;0.50;;;0.30;;
12861;SDS011;6499;66.348;14.134;2023-01-31T02:10:29;1.27;;;0.30;;
12861;SDS011;6499;66.348;14.134;2023-01-31T02:12:57;0.30;;;0.30;;
12861;SDS011;6499;66.348;14.134;2023-01-31T02:15:25;0.33;;;0.30;;
12861;SDS011;6499;66.348;14.134;2023-01-31T02:17:52;0.53;;;0.30;;
12861;SDS011;6499;66.348;14.134;2023-01-31T02:20:28;0.40;;;0.40;;
12861;SDS011;6499;66.348;14.134;2023-01-31T02:23:01;0.60;;;0.30;;
12861;SDS011;6499;66.348;14.134;2023-01-31T02:25:51;0.40;;;0.30;;
12861;SDS011;6499;66.348;14.134;2023-01-31T02:28:28;0.30;;;0.20;;
12861;SDS011;6499;66.348;14.134;2023-01-31T02:31:06;1.00;;;0.20;;
12861;SDS011;6499;66.348;14.134;2023-01-31T02:33:38;0.40;;;0.40;;
12861;SDS011;6499;66.348;14.134;2023-01-31T02:36:12;0.53;;;0.40;;
12861;SDS011;6499;66.348;14.134;2023-01-31T02:38:46;0.30;;;0.30;;
12861;SDS011;6499;66.348;14.134;2023-01-31T02:41:16;0.20;;;0.20;;
12861;SDS011;6499;66.348;14.134;2023-01-31T02:43:47;0.10;;;0.10;;
12861;SDS011;6499;66.348;14.134;2023-01-31T02:46:35;0.20;;;0.20;;
12861;SDS011;6499;66.348;14.134;2023-01-31T02:49:07;0.23;;;0.23;;
12861;SDS011;6499;66.348;14.134;2023-01-31T02:51:41;0.40;;;0.30;;
12861;SDS011;6499;66.348;14.134;2023-01-31T02:54:29;0.97;;;0.30;;
12861;SDS011;6499;66.348;14.134;2023-01-31T02:57:16;0.47;;;0.30;;
12861;SDS011;6499;66.348;14.134;2023-01-31T02:59:43;0.43;;;0.30;;
12861;SDS011;6499;66.348;14.134;2023-01-31T03:02:10;0.67;;;0.50;;
12861;SDS011;6499;66.348;14.134;2023-01-31T03:04:39;0.40;;;0.40;;
12861;SDS011;6499;66.348;14.134;2023-01-31T03:07:07;0.47;;;0.47;;
12861;SDS011;6499;66.348;14.134;2023-01-31T03:09:40;0.30;;;0.30;;
12861;SDS011;6499;66.348;14.134;2023-01-31T03:12:13;1.10;;;0.40;;
12861;SDS011;6499;66.348;14.134;2023-01-31T03:14:44;0.33;;;0.30;;
12861;SDS011;6499;66.348;14.134;2023-01-31T03:17:13;0.30;;;0.30;;
12861;SDS011;6499;66.348;14.134;2023-01-31T03:20:02;0.77;;;0.40;;
12861;SDS011;6499;66.348;14.134;2023-01-31T03:22:37;0.60;;;0.30;;
12861;SDS011;6499;66.348;14.134;2023-01-31T03:25:05;2.70;;;0.30;;
12861;SDS011;6499;66.348;14.134;2023-01-31T03:27:33;0.73;;;0.30;;
12861;SDS011;6499;66.348;14.134;2023-01-31T03:30:01;1.37;;;0.40;;
12861;SDS011;6499;66.348;14.134;2023-01-31T03:32:29;0.50;;;0.30;;
12861;SDS011;6499;66.348;14.134;2023-01-31T03:34:58;0.30;;;0.30;;
12861;SDS011;6499;66.348;14.134;2023-01-31T03:37:29;1.07;;;0.37;;
12861;SDS011;6499;66.348;14.134;2023-01-31T03:39:58;0.43;;;0.40;;
12861;SDS011;6499;66.348;14.134;2023-01-31T03:42:27;1.43;;;0.53;;
12861;SDS011;6499;66.348;14.134;2023-01-31T03:44:57;1.03;;;0.37;;
12861;SDS011;6499;66.348;14.134;2023-01-31T03:47:26;1.80;;;0.40;;
12861;SDS011;6499;66.348;14.134;2023-01-31T03:49:54;0.87;;;0.40;;
12861;SDS011;6499;66.348;14.134;2023-01-31T03:52:24;0.30;;;0.30;;
12861;SDS011;6499;66.348;14.134;2023-01-31T03:54:54;1.53;;;0.33;;
12861;SDS011;6499;66.348;14.134;2023-01-31T03:57:23;0.60;;;0.40;;
12861;SDS011;6499;66.348;14.134;2023-01-31T03:59:51;1.73;;;0.57;;
12861;SDS011;6499;66.348;14.134;2023-01-31T04:02:19;0.67;;;0.50;;
12861;SDS011;6499;66.348;14.134;2023-01-31T04:04:47;0.63;;;0.43;;
12861;SDS011;6499;66.348;14.134;2023-01-31T04:07:16;0.50;;;0.30;;
12861;SDS011;6499;66.348;14.134;2023-01-31T04:09:43;0.80;;;0.20;;
12861;SDS011;6499;66.348;14.134;2023-01-31T04:12:12;0.73;;;0.40;;
12861;SDS011;6499;66.348;14.134;2023-01-31T04:14:39;0.53;;;0.20;;
12861;SDS011;6499;66.348;14.134;2023-01-31T04:17:05;0.50;;;0.30;;
12861;SDS011;6499;66.348;14.134;2023-01-31T04:19:31;0.30;;;0.23;;
12861;SDS011;6499;66.348;14.134;2023-01-31T04:21:58;0.20;;;0.20;;
12861;SDS011;6499;66.348;14.134;2023-01-31T04:24:24;0.40;;;0.40;;
12861;SDS011;6499;66.348;14.134;2023-01-31T04:26:51;0.30;;;0.30;;
12861;SDS011;6499;66.348;14.134;2023-01-31T04:29:19;0.50;;;0.30;;
12861;SDS011;6499;66.348;14.134;2023-01-31T04:31:46;0.47;;;0.40;;
12861;SDS011;6499;66.348;14.134;2023-01-31T04:34:12;0.23;;;0.23;;
12861;SDS011;6499;66.348;14.134;2023-01-31T04:36:39;0.77;;;0.37;;
12861;SDS011;6499;66.348;14.134;2023-01-31T04:39:05;0.20;;;0.20;;
12861;SDS011;6499;66.348;14.134;2023-01-31T04:41:32;0.20;;;0.20;;
12861;SDS011;6499;66.348;14.134;2023-01-31T04:43:58;0.80;;;0.20;;
12861;SDS011;6499;66.348;14.134;2023-01-31T04:46:26;0.33;;;0.23;;
12861;SDS011;6499;66.348;14.134;2023-01-31T04:48:53;0.30;;;0.30;;
12861;SDS011;6499;66.348;14.134;2023-01-31T04:51:19;0.47;;;0.47;;
12861;SDS011;6499;66.348;14.134;2023-01-31T04:53:45;0.70;;;0.40;;
12861;SDS011;6499;66.348;14.134;2023-01-31T04:56:12;0.80;;;0.40;;
12861;SDS011;6499;66.348;14.134;2023-01-31T04:58:38;0.70;;;0.50;;
12861;SDS011;6499;66.348;14.134;2023-01-31T05:01:07;0.40;;;0.40;;
12861;SDS011;6499;66.348;14.134;2023-01-31T05:03:35;0.97;;;0.33;;
12861;SDS011;6499;66.348;14.134;2023-01-31T05:06:02;0.40;;;0.40;;
12861;SDS011;6499;66.348;14.134;2023-01-31T05:08:28;0.80;;;0.50;;
12861;SDS011;6499;66.348;14.134;2023-01-31T05:10:58;0.20;;;0.20;;
12861;SDS011;6499;66.348;14.134;2023-01-31T05:13:24;0.50;;;0.30;;
12861;SDS011;6499;66.348;14.134;2023-01-31T05:15:51;0.33;;;0.30;;
12861;SDS011;6499;66.348;14.134;2023-01-31T05:18:17;0.97;;;0.37;;
12861;SDS011;6499;66.348;14.134;2023-01-31T05:20:48;0.63;;;0.40;;
12861;SDS011;6499;66.348;14.134;2023-01-31T05:23:15;0.60;;;0.30;;
12861;SDS011;6499;66.348;14.134;2023-01-31T05:25:42;0.30;;;0.30;;
12861;SDS011;6499;66.348;14.134;2023-01-31T05:28:08;0.60;;;0.30;;
12861;SDS011;6499;66.348;14.134;2023-01-31T05:30:35;0.83;;;0.33;;
12861;SDS011;6499;66.348;14.134;2023-01-31T05:33:02;1.47;;;0.40;;
12861;SDS011;6499;66.348;14.134;2023-01-31T05:35:28;1.03;;;0.40;;
12861;SDS011;6499;66.348;14.134;2023-01-31T05:37:56;0.90;;;0.50;;
12861;SDS011;6499;66.348;14.134;2023-01-31T05:40:22;0.27;;;0.27;;
12861;SDS011;6499;66.348;14.134;2023-01-31T05:42:51;0.30;;;0.30;;
12861;SDS011;6499;66.348;14.134;2023-01-31T05:45:18;1.70;;;0.40;;
12861;SDS011;6499;66.348;14.134;2023-01-31T05:47:45;1.00;;;0.70;;
12861;SDS011;6499;66.348;14.134;2023-01-31T05:50:11;0.60;;;0.43;;
12861;SDS011;6499;66.348;14.134;2023-01-31T05:52:39;0.70;;;0.47;;
12861;SDS011;6499;66.348;14.134;2023-01-31T05:55:07;0.40;;;0.40;;
12861;SDS011;6499;66.348;14.134;2023-01-31T05:57:34;2.37;;;0.40;;
12861;SDS011;6499;66.348;14.134;2023-01-31T06:00:00;0.30;;;0.30;;
12861;SDS011;6499;66.348;14.134;2023-01-31T06:02:27;0.50;;;0.20;;
12861;SDS011;6499;66.348;14.134;2023-01-31T06:04:54;0.30;;;0.30;;
12861;SDS011;6499;66.348;14.134;2023-01-31T06:07:21;0.50;;;0.30;;
12861;SDS011;6499;66.348;14.134;2023-01-31T06:09:48;0.40;;;0.37;;
12861;SDS011;6499;66.348;14.134;2023-01-31T06:12:16;0.63;;;0.40;;
12861;SDS011;6499;66.348;14.134;2023-01-31T06:14:42;0.60;;;0.30;;
12861;SDS011;6499;66.348;14.134;2023-01-31T06:17:10;0.60;;;0.40;;
12861;SDS011;6499;66.348;14.134;2023-01-31T06:19:36;0.30;;;0.30;;
12861;SDS011;6499;66.348;14.134;2023-01-31T06:22:03;0.27;;;0.23;;
12861;SDS011;6499;66.348;14.134;2023-01-31T06:24:29;0.67;;;0.30;;
12861;SDS011;6499;66.348;14.134;2023-01-31T06:26:56;0.20;;;0.20;;
12861;SDS011;6499;66.348;14.134;2023-01-31T06:29:24;1.27;;;0.30;;
12861;SDS011;6499;66.348;14.134;2023-01-31T06:31:50;0.40;;;0.40;;
12861;SDS011;6499;66.348;14.134;2023-01-31T06:34:17;0.50;;;0.27;;
12861;SDS011;6499;66.348;14.134;2023-01-31T06:36:44;0.30;;;0.30;;
12861;SDS011;6499;66.348;14.134;2023-01-31T06:39:11;0.40;;;0.40;;
12861;SDS011;6499;66.348;14.134;2023-01-31T06:41:38;0.33;;;0.33;;
12861;SDS011;6499;66.348;14.134;2023-01-31T06:44:04;0.47;;;0.40;;
12861;SDS011;6499;66.348;14.134;2023-01-31T06:46:32;1.10;;;0.37;;
12861;SDS011;6499;66.348;14.134;2023-01-31T06:48:59;0.70;;;0.50;;
12861;SDS011;6499;66.348;14.134;2023-01-31T06:51:26;1.07;;;0.50;;
12861;SDS011;6499;66.348;14.134;2023-01-31T06:53:53;0.47;;;0.40;;
12861;SDS011;6499;66.348;14.134;2023-01-31T06:56:20;0.37;;;0.30;;
12861;SDS011;6499;66.348;14.134;2023-01-31T06:58:47;0.40;;;0.30;;
12861;SDS011;6499;66.348;14.134;2023-01-31T07:01:13;0.40;;;0.40;;
12861;SDS011;6499;66.348;14.134;2023-01-31T07:03:41;1.03;;;0.30;;
12861;SDS011;6499;66.348;14.134;2023-01-31T07:06:08;0.37;;;0.33;;
12861;SDS011;6499;66.348;14.134;2023-01-31T07:08:34;0.20;;;0.20;;
12861;SDS011;6499;66.348;14.134;2023-01-31T07:11:01;0.70;;;0.40;;
12861;SDS011;6499;66.348;14.134;2023-01-31T07:13:28;1.63;;;0.40;;
12861;SDS011;6499;66.348;14.134;2023-01-31T07:15:55;1.10;;;0.30;;
12861;SDS011;6499;66.348;14.134;2023-01-31T07:18:21;0.37;;;0.37;;
12861;SDS011;6499;66.348;14.134;2023-01-31T07:20:49;2.57;;;1.40;;
12861;SDS011;6499;66.348;14.134;2023-01-31T07:23:16;1.60;;;1.50;;
12861;SDS011;6499;66.348;14.134;2023-01-31T07:25:42;1.30;;;1.20;;
12861;SDS011;6499;66.348;14.134;2023-01-31T07:28:09;1.43;;;1.33;;
12861;SDS011;6499;66.348;14.134;2023-01-31T07:30:36;1.00;;;1.00;;
12861;SDS011;6499;66.348;14.134;2023-01-31T07:33:04;2.00;;;1.90;;
12861;SDS011;6499;66.348;14.134;2023-01-31T07:35:30;2.47;;;2.27;;
12861;SDS011;6499;66.348;14.134;2023-01-31T07:37:58;2.40;;;2.00;;
12861;SDS011;6499;66.348;14.134;2023-01-31T07:40:24;1.40;;;1.10;;
12861;SDS011;6499;66.348;14.134;2023-01-31T07:42:51;1.30;;;1.00;;
12861;SDS011;6499;66.348;14.134;2023-01-31T07:45:22;0.80;;;0.60;;
12861;SDS011;6499;66.348;14.134;2023-01-31T07:47:48;0.40;;;0.40;;
12861;SDS011;6499;66.348;14.134;2023-01-31T07:50:15;0.40;;;0.40;;
12861;SDS011;6499;66.348;14.134;2023-01-31T07:52:42;0.20;;;0.20;;
12861;SDS011;6499;66.348;14.134;2023-01-31T07:55:10;0.87;;;0.40;;
12861;SDS011;6499;66.348;14.134;2023-01-31T07:57:36;0.67;;;0.40;;
12861;SDS011;6499;66.348;14.134;2023-01-31T08:00:03;0.60;;;0.50;;
12861;SDS011;6499;66.348;14.134;2023-01-31T08:02:49;0.23;;;0.23;;
12861;SDS011;6499;66.348;14.134;2023-01-31T08:05:33;0.90;;;0.60;;
12861;SDS011;6499;66.348;14.134;2023-01-31T08:08:00;0.60;;;0.53;;
12861;SDS011;6499;66.348;14.134;2023-01-31T08:10:36;0.50;;;0.50;;
12861;SDS011;6499;66.348;14.134;2023-01-31T08:13:03;1.00;;;0.90;;
12861;SDS011;6499;66.348;14.134;2023-01-31T08:15:30;0.90;;;0.87;;
12861;SDS011;6499;66.348;14.134;2023-01-31T08:17:56;0.60;;;0.60;;
12861;SDS011;6499;66.348;14.134;2023-01-31T08:20:23;1.37;;;0.80;;
12861;SDS011;6499;66.348;14.134;2023-01-31T08:22:51;0.93;;;0.60;;
12861;SDS011;6499;66.348;14.134;2023-01-31T08:25:18;1.40;;;1.20;;
12861;SDS011;6499;66.348;14.134;2023-01-31T08:27:46;1.17;;;0.97;;
12861;SDS011;6499;66.348;14.134;2023-01-31T08:30:12;0.47;;;0.40;;
12861;SDS011;6499;66.348;14.134;2023-01-31T08:32:39;0.67;;;0.57;;
12861;SDS011;6499;66.348;14.134;2023-01-31T08:35:08;0.70;;;0.30;;
12861;SDS011;6499;66.348;14.134;2023-01-31T08:37:35;0.47;;;0.40;;
12861;SDS011;6499;66.348;14.134;2023-01-31T08:40:01;0.40;;;0.40;;
12861;SDS011;6499;66.348;14.134;2023-01-31T08:42:28;0.60;;;0.60;;
12861;SDS011;6499;66.348;14.134;2023-01-31T08:44:56;0.80;;;0.57;;
12861;SDS011;6499;66.348;14.134;2023-01-31T08:47:22;0.47;;;0.30;;
12861;SDS011;6499;66.348;14.134;2023-01-31T08:49:49;0.30;;;0.30;;
12861;SDS011;6499;66.348;14.134;2023-01-31T08:52:15;0.73;;;0.60;;
12861;SDS011;6499;66.348;14.134;2023-01-31T08:54:42;0.33;;;0.30;;
12861;SDS011;6499;66.348;14.134;2023-01-31T08:57:08;0.70;;;0.70;;
12861;SDS011;6499;66.348;14.134;2023-01-31T08:59:34;1.10;;;0.67;;
12861;SDS011;6499;66.348;14.134;2023-01-31T09:02:02;1.47;;;1.03;;
12861;SDS011;6499;66.348;14.134;2023-01-31T09:04:29;1.57;;;0.50;;
12861;SDS011;6499;66.348;14.134;2023-01-31T09:06:55;0.57;;;0.37;;
12861;SDS011;6499;66.348;14.134;2023-01-31T09:09:22;0.83;;;0.70;;
12861;SDS011;6499;66.348;14.134;2023-01-31T09:11:50;1.30;;;0.90;;
12861;SDS011;6499;66.348;14.134;2023-01-31T09:14:16;1.10;;;0.80;;
12861;SDS011;6499;66.348;14.134;2023-01-31T09:16:43;1.40;;;0.97;;
12861;SDS011;6499;66.348;14.134;2023-01-31T09:19:12;1.23;;;0.60;;
12861;SDS011;6499;66.348;14.134;2023-01-31T09:21:38;2.00;;;0.90;;
12861;SDS011;6499;66.348;14.134;2023-01-31T09:24:05;1.10;;;0.77;;
12861;SDS011;6499;66.348;14.134;2023-01-31T09:26:32;2.43;;;1.03;;
12861;SDS011;6499;66.348;14.134;2023-01-31T09:28:58;2.73;;;0.97;;
12861;SDS011;6499;66.348;14.134;2023-01-31T09:31:25;5.07;;;1.20;;
12861;SDS011;6499;66.348;14.134;2023-01-31T09:33:53;2.67;;;1.20;;
12861;SDS011;6499;66.348;14.134;2023-01-31T09:36:21;1.20;;;0.80;;
12861;SDS011;6499;66.348;14.134;2023-01-31T09:38:52;1.53;;;0.80;;
12861;SDS011;6499;66.348;14.134;2023-01-31T09:41:21;0.77;;;0.77;;
12861;SDS011;6499;66.348;14.134;2023-01-31T09:43:51;1.63;;;0.50;;
12861;SDS011;6499;66.348;14.134;2023-01-31T09:46:19;0.70;;;0.60;;
12861;SDS011;6499;66.348;14.134;2023-01-31T09:48:47;0.70;;;0.57;;
12861;SDS011;6499;66.348;14.134;2023-01-31T09:51:14;0.50;;;0.43;;
12861;SDS011;6499;66.348;14.134;2023-01-31T09:53:43;1.10;;;0.90;;
12861;SDS011;6499;66.348;14.134;2023-01-31T09:56:17;2.10;;;1.13;;
12861;SDS011;6499;66.348;14.134;2023-01-31T09:58:48;2.40;;;1.07;;
12861;SDS011;6499;66.348;14.134;2023-01-31T10:01:17;1.77;;;1.00;;
12861;SDS011;6499;66.348;14.134;2023-01-31T10:03:47;1.60;;;0.90;;
12861;SDS011;6499;66.348;14.134;2023-01-31T10:06:17;3.63;;;1.77;;
12861;SDS011;6499;66.348;14.134;2023-01-31T10:08:48;1.30;;;0.60;;
12861;SDS011;6499;66.348;14.134;2023-01-31T10:11:20;1.93;;;1.03;;
12861;SDS011;6499;66.348;14.134;2023-01-31T10:13:50;1.97;;;1.00;;
12861;SDS011;6499;66.348;14.134;2023-01-31T10:16:20;2.13;;;1.00;;
12861;SDS011;6499;66.348;14.134;2023-01-31T10:18:51;2.43;;;1.73;;
12861;SDS011;6499;66.348;14.134;2023-01-31T10:21:21;4.93;;;3.20;;
12861;SDS011;6499;66.348;14.134;2023-01-31T10:23:49;3.20;;;1.67;;
12861;SDS011;6499;66.348;14.134;2023-01-31T10:26:18;2.90;;;1.80;;
12861;SDS011;6499;66.348;14.134;2023-01-31T10:28:46;6.23;;;2.80;;
12861;SDS011;6499;66.348;14.134;2023-01-31T10:31:17;5.67;;;2.67;;
12861;SDS011;6499;66.348;14.134;2023-01-31T10:33:50;8.43;;;2.30;;
12861;SDS011;6499;66.348;14.134;2023-01-31T10:36:24;4.13;;;1.70;;
12861;SDS011;6499;66.348;14.134;2023-01-31T10:38:56;2.00;;;0.80;;
12861;SDS011;6499;66.348;14.134;2023-01-31T10:41:26;2.87;;;1.03;;
12861;SDS011;6499;66.348;14.134;2023-01-31T10:43:56;43.07;;;15.23;;
12861;SDS011;6499;66.348;14.134;2023-01-31T10:46:27;80.33;;;29.37;;
12861;SDS011;6499;66.348;14.134;2023-01-31T10:48:53;17.30;;;6.83;;
12861;SDS011;6499;66.348;14.134;2023-01-31T10:51:27;8.33;;;2.93;;
12861;SDS011;6499;66.348;14.134;2023-01-31T10:54:02;4.17;;;2.33;;
12861;SDS011;6499;66.348;14.134;2023-01-31T10:56:33;22.30;;;9.47;;
12861;SDS011;6499;66.348;14.134;2023-01-31T10:59:00;50.47;;;18.27;;
12861;SDS011;6499;66.348;14.134;2023-01-31T11:01:27;27.50;;;11.27;;
12861;SDS011;6499;66.348;14.134;2023-01-31T11:03:54;17.30;;;7.17;;
12861;SDS011;6499;66.348;14.134;2023-01-31T11:06:22;10.47;;;3.57;;
12861;SDS011;6499;66.348;14.134;2023-01-31T11:08:49;18.47;;;7.83;;
12861;SDS011;6499;66.348;14.134;2023-01-31T11:11:19;18.77;;;9.17;;
12861;SDS011;6499;66.348;14.134;2023-01-31T11:13:54;6.20;;;3.57;;
12861;SDS011;6499;66.348;14.134;2023-01-31T11:16:21;25.63;;;11.10;;
12861;SDS011;6499;66.348;14.134;2023-01-31T11:18:48;2.07;;;1.40;;
12861;SDS011;6499;66.348;14.134;2023-01-31T11:21:18;1.73;;;1.00;;
12861;SDS011;6499;66.348;14.134;2023-01-31T11:23:45;2.00;;;1.40;;
12861;SDS011;6499;66.348;14.134;2023-01-31T11:26:11;3.10;;;2.20;;
12861;SDS011;6499;66.348;14.134;2023-01-31T11:28:40;3.43;;;2.30;;
12861;SDS011;6499;66.348;14.134;2023-01-31T11:31:14;4.07;;;1.53;;
12861;SDS011;6499;66.348;14.134;2023-01-31T11:33:43;3.00;;;1.63;;
12861;SDS011;6499;66.348;14.134;2023-01-31T11:36:12;3.67;;;2.00;;
12861;SDS011;6499;66.348;14.134;2023-01-31T11:38:39;1.87;;;0.97;;
12861;SDS011;6499;66.348;14.134;2023-01-31T11:44:09;2.23;;;0.80;;
12861;SDS011;6499;66.348;14.134;2023-01-31T11:46:43;1.93;;;0.90;;
12861;SDS011;6499;66.348;14.134;2023-01-31T11:49:10;1.13;;;0.70;;
12861;SDS011;6499;66.348;14.134;2023-01-31T11:51:37;2.23;;;0.90;;
12861;SDS011;6499;66.348;14.134;2023-01-31T11:54:05;1.63;;;0.80;;
12861;SDS011;6499;66.348;14.134;2023-01-31T11:56:33;1.93;;;1.20;;
12861;SDS011;6499;66.348;14.134;2023-01-31T11:59:02;1.40;;;0.80;;
12861;SDS011;6499;66.348;14.134;2023-01-31T12:01:32;0.77;;;0.60;;
12861;SDS011;6499;66.348;14.134;2023-01-31T12:04:02;1.83;;;0.83;;
12861;SDS011;6499;66.348;14.134;2023-01-31T12:06:30;1.73;;;0.80;;
12861;SDS011;6499;66.348;14.134;2023-01-31T12:08:58;1.83;;;0.63;;
12861;SDS011;6499;66.348;14.134;2023-01-31T12:11:26;1.43;;;0.80;;
12861;SDS011;6499;66.348;14.134;2023-01-31T12:13:59;1.83;;;0.93;;
12861;SDS011;6499;66.348;14.134;2023-01-31T12:16:26;1.47;;;0.90;;
12861;SDS011;6499;66.348;14.134;2023-01-31T12:18:59;1.43;;;0.93;;
12861;SDS011;6499;66.348;14.134;2023-01-31T12:21:33;1.40;;;0.90;;
12861;SDS011;6499;66.348;14.134;2023-01-31T12:24:05;1.90;;;0.87;;
12861;SDS011;6499;66.348;14.134;2023-01-31T12:26:38;0.97;;;0.70;;
12861;SDS011;6499;66.348;14.134;2023-01-31T12:29:12;2.33;;;1.00;;
12861;SDS011;6499;66.348;14.134;2023-01-31T12:31:47;2.17;;;0.90;;
12861;SDS011;6499;66.348;14.134;2023-01-31T12:34:24;1.00;;;0.70;;
12861;SDS011;6499;66.348;14.134;2023-01-31T12:36:57;1.10;;;0.80;;
12861;SDS011;6499;66.348;14.134;2023-01-31T12:39:31;0.67;;;0.60;;
12861;SDS011;6499;66.348;14.134;2023-01-31T12:42:03;1.30;;;0.50;;
12861;SDS011;6499;66.348;14.134;2023-01-31T12:44:39;1.73;;;0.70;;
12861;SDS011;6499;66.348;14.134;2023-01-31T12:47:20;0.90;;;0.77;;
12861;SDS011;6499;66.348;14.134;2023-01-31T12:49:55;0.80;;;0.63;;
12861;SDS011;6499;66.348;14.134;2023-01-31T12:52:24;0.50;;;0.50;;
12861;SDS011;6499;66.348;14.134;2023-01-31T12:54:57;1.20;;;0.80;;
12861;SDS011;6499;66.348;14.134;2023-01-31T12:57:28;1.00;;;0.67;;
12861;SDS011;6499;66.348;14.134;2023-01-31T13:00:01;0.87;;;0.67;;
12861;SDS011;6499;66.348;14.134;2023-01-31T13:02:31;0.87;;;0.60;;
12861;SDS011;6499;66.348;14.134;2023-01-31T13:05:02;0.77;;;0.47;;
12861;SDS011;6499;66.348;14.134;2023-01-31T13:07:33;0.83;;;0.50;;
12861;SDS011;6499;66.348;14.134;2023-01-31T13:10:02;0.97;;;0.60;;
12861;SDS011;6499;66.348;14.134;2023-01-31T13:12:30;0.90;;;0.60;;
12861;SDS011;6499;66.348;14.134;2023-01-31T13:15:00;0.90;;;0.77;;
12861;SDS011;6499;66.348;14.134;2023-01-31T13:17:28;1.60;;;0.70;;
12861;SDS011;6499;66.348;14.134;2023-01-31T13:19:57;0.60;;;0.50;;
12861;SDS011;6499;66.348;14.134;2023-01-31T13:22:27;0.70;;;0.70;;
12861;SDS011;6499;66.348;14.134;2023-01-31T13:24:56;1.40;;;0.53;;
12861;SDS011;6499;66.348;14.134;2023-01-31T13:27:25;1.33;;;0.80;;
12861;SDS011;6499;66.348;14.134;2023-01-31T13:29:55;0.83;;;0.70;;
12861;SDS011;6499;66.348;14.134;2023-01-31T13:32:25;2.20;;;1.10;;
12861;SDS011;6499;66.348;14.134;2023-01-31T13:34:53;4.30;;;1.20;;
12861;SDS011;6499;66.348;14.134;2023-01-31T13:37:21;2.13;;;1.10;;
12861;SDS011;6499;66.348;14.134;2023-01-31T13:39:52;1.30;;;0.90;;
12861;SDS011;6499;66.348;14.134;2023-01-31T13:42:19;1.33;;;0.90;;
12861;SDS011;6499;66.348;14.134;2023-01-31T13:44:46;1.00;;;0.70;;
12861;SDS011;6499;66.348;14.134;2023-01-31T13:47:15;1.33;;;0.90;;
12861;SDS011;6499;66.348;14.134;2023-01-31T13:49:43;0.90;;;0.80;;
12861;SDS011;6499;66.348;14.134;2023-01-31T13:52:14;0.57;;;0.53;;
12861;SDS011;6499;66.348;14.134;2023-01-31T13:54:43;1.33;;;1.00;;
12861;SDS011;6499;66.348;14.134;2023-01-31T13:57:22;1.30;;;0.70;;
12861;SDS011;6499;66.348;14.134;2023-01-31T13:59:51;0.80;;;0.67;;
12861;SDS011;6499;66.348;14.134;2023-01-31T14:02:18;0.80;;;0.70;;
12861;SDS011;6499;66.348;14.134;2023-01-31T14:04:45;1.57;;;0.80;;
12861;SDS011;6499;66.348;14.134;2023-01-31T14:07:16;1.40;;;0.90;;
12861;SDS011;6499;66.348;14.134;2023-01-31T14:09:44;1.37;;;0.77;;
12861;SDS011;6499;66.348;14.134;2023-01-31T14:12:34;1.40;;;0.87;;
12861;SDS011;6499;66.348;14.134;2023-01-31T14:15:01;1.23;;;1.13;;
12861;SDS011;6499;66.348;14.134;2023-01-31T14:20:23;1.93;;;1.13;;
12861;SDS011;6499;66.348;14.134;2023-01-31T14:25:39;1.00;;;0.80;;
12861;SDS011;6499;66.348;14.134;2023-01-31T14:28:09;1.77;;;0.90;;
12861;SDS011;6499;66.348;14.134;2023-01-31T14:30:38;1.43;;;0.83;;
12861;SDS011;6499;66.348;14.134;2023-01-31T14:38:40;1.10;;;0.90;;
12861;SDS011;6499;66.348;14.134;2023-01-31T14:41:12;2.40;;;0.90;;
12861;SDS011;6499;66.348;14.134;2023-01-31T14:43:46;1.30;;;0.80;;
12861;SDS011;6499;66.348;14.134;2023-01-31T14:46:18;1.27;;;0.83;;
12861;SDS011;6499;66.348;14.134;2023-01-31T14:49:02;1.17;;;0.90;;
12861;SDS011;6499;66.348;14.134;2023-01-31T14:51:35;5.67;;;3.00;;
12861;SDS011;6499;66.348;14.134;2023-01-31T14:54:17;2.00;;;1.23;;
12861;SDS011;6499;66.348;14.134;2023-01-31T14:57:02;2.63;;;2.43;;
12861;SDS011;6499;66.348;14.134;2023-01-31T14:59:34;2.17;;;1.20;;
12861;SDS011;6499;66.348;14.134;2023-01-31T15:02:17;2.20;;;1.30;;
12861;SDS011;6499;66.348;14.134;2023-01-31T15:04:53;1.93;;;1.40;;
12861;SDS011;6499;66.348;14.134;2023-01-31T15:07:22;1.20;;;1.00;;
12861;SDS011;6499;66.348;14.134;2023-01-31T15:09:49;3.07;;;1.10;;
12861;SDS011;6499;66.348;14.134;2023-01-31T15:15:09;1.50;;;0.90;;